Time;durP1;ratioP1;P1;durP2;ratioP2;P2;SDS_P1;SDS_P2;PMS_P1;PMS_P2;Temp;Humidity;BMP_temperature;BMP_pressure;BME280_temperature;BME280_humidity;BME280_pressure;Samples;Min_cycle;Max_cycle;Signal;HPM_P1;HPM_P2
2022/06/29 00:00:23;;;;;;;3.08;1.70;;;;;;;16.82;63.55;100373.69;5053137;28;20049;-63
2022/06/29 00:02:51;;;;;;;2.38;1.67;;;;;;;16.75;63.77;100381.88;5052909;28;20057;-63
2022/06/29 00:05:21;;;;;;;3.60;1.80;;;;;;;16.70;63.77;100372.91;5052887;28;20053;-63
2022/06/29 00:07:49;;;;;;;3.00;2.25;;;;;;;16.66;64.09;100372.00;5060187;28;20081;-64
2022/06/29 00:10:17;;;;;;;2.42;1.63;;;;;;;16.63;64.04;100362.25;5072754;28;20048;-63
2022/06/29 00:12:48;;;;;;;3.35;1.65;;;;;;;16.64;63.99;100367.53;5072992;28;20056;-63
2022/06/29 00:15:17;;;;;;;2.30;1.70;;;;;;;16.59;64.06;100362.19;5072023;28;20052;-63
2022/06/29 00:17:45;;;;;;;2.57;1.70;;;;;;;16.55;64.19;100366.88;5068344;28;20052;-63
2022/06/29 00:20:13;;;;;;;2.78;1.52;;;;;;;16.50;64.35;100358.69;5069716;28;20855;-63
2022/06/29 00:22:41;;;;;;;2.10;1.48;;;;;;;16.50;64.24;100367.13;5072865;28;20052;-63
2022/06/29 00:25:09;;;;;;;2.53;1.50;;;;;;;16.43;64.33;100364.91;5072601;28;20052;-63
2022/06/29 00:27:37;;;;;;;2.53;1.77;;;;;;;16.41;64.63;100363.66;5068084;28;20412;-63
2022/06/29 00:30:07;;;;;;;2.25;1.40;;;;;;;16.39;64.74;100363.19;5069338;28;20044;-63
2022/06/29 00:32:35;;;;;;;2.72;1.70;;;;;;;16.29;65.05;100370.13;5072493;28;20056;-63
2022/06/29 00:35:03;;;;;;;2.75;1.50;;;;;;;16.31;65.10;100370.56;5072547;28;20052;-63
2022/06/29 00:37:30;;;;;;;2.50;1.38;;;;;;;16.36;64.65;100366.72;5069747;28;20056;-63
2022/06/29 00:39:57;;;;;;;2.53;1.58;;;;;;;16.35;64.70;100359.44;5069645;28;20060;-63
2022/06/29 00:42:25;;;;;;;2.20;1.42;;;;;;;16.34;64.56;100357.81;5072145;28;20501;-63
2022/06/29 00:44:52;;;;;;;2.83;1.60;;;;;;;16.30;64.72;100346.47;5072682;28;20059;-63
2022/06/29 00:47:22;;;;;;;3.13;1.90;;;;;;;16.28;65.15;100342.38;5072458;28;20516;-63
2022/06/29 00:49:49;;;;;;;3.13;1.88;;;;;;;16.27;65.13;100343.53;5067766;28;20071;-64
2022/06/29 00:52:19;;;;;;;2.72;1.67;;;;;;;16.27;65.09;100346.34;5072223;28;20048;-63
2022/06/29 00:54:53;;;;;;;3.28;1.60;;;;;;;16.28;65.32;100343.19;5072409;28;20063;-64
2022/06/29 00:57:22;;;;;;;2.67;1.90;;;;;;;16.28;65.05;100339.56;5067555;28;20059;-63
2022/06/29 00:59:50;;;;;;;3.05;1.98;;;;;;;16.28;65.06;100337.56;5072448;28;20453;-63
2022/06/29 01:02:19;;;;;;;2.20;1.40;;;;;;;16.31;65.10;100330.41;5072213;28;20567;-63
2022/06/29 01:04:49;;;;;;;2.45;1.40;;;;;;;16.34;64.81;100329.72;5071802;28;20053;-63
2022/06/29 01:07:18;;;;;;;2.95;1.58;;;;;;;16.32;65.18;100337.69;5064653;28;20056;-63
2022/06/29 01:09:46;;;;;;;2.60;1.92;;;;;;;16.36;65.10;100328.19;5068457;28;20424;-64
2022/06/29 01:12:14;;;;;;;3.03;1.50;;;;;;;16.36;65.32;100321.75;5071782;28;20401;-63
2022/06/29 01:14:43;;;;;;;1.95;1.63;;;;;;;16.42;65.04;100323.09;5072151;28;20056;-64
2022/06/29 01:17:11;;;;;;;2.92;1.75;;;;;;;16.47;64.96;100327.66;5067722;28;20048;-63
2022/06/29 01:19:40;;;;;;;4.10;2.10;;;;;;;16.47;64.89;100322.03;5071223;28;20440;-63
2022/06/29 01:22:10;;;;;;;1.90;1.38;;;;;;;16.47;64.94;100325.66;5071812;28;20052;-64
2022/06/29 01:24:38;;;;;;;2.47;1.80;;;;;;;16.50;64.74;100327.75;5072234;28;20416;-63
2022/06/29 01:27:06;;;;;;;2.80;1.65;;;;;;;16.45;64.78;100328.03;5071697;28;20079;-63
2022/06/29 01:29:34;;;;;;;3.60;1.88;;;;;;;16.52;64.72;100321.78;5074968;28;20424;-63
2022/06/29 01:32:02;;;;;;;3.75;1.70;;;;;;;16.55;64.68;100321.88;5075872;28;20060;-64
2022/06/29 01:34:31;;;;;;;3.25;1.63;;;;;;;16.58;64.52;100323.97;5076013;28;20049;-63
2022/06/29 01:36:59;;;;;;;2.80;2.00;;;;;;;16.57;64.60;100315.91;5076062;28;20064;-63
2022/06/29 01:39:29;;;;;;;3.08;1.50;;;;;;;16.61;64.79;100322.44;5072950;28;20060;-63
2022/06/29 01:41:56;;;;;;;;;;;;;;;16.55;64.98;100316.25;5076277;28;20134;-64
2022/06/29 01:44:23;;;;;;;3.72;1.50;;;;;;;16.61;65.13;100314.03;5062771;28;19921;-63
2022/06/29 01:46:51;;;;;;;2.30;1.83;;;;;;;16.68;64.68;100310.59;5055477;28;20421;-63
2022/06/29 01:49:18;;;;;;;3.20;1.80;;;;;;;16.72;64.74;100306.69;5068837;28;20048;-63
2022/06/29 01:51:45;;;;;;;5.00;1.60;;;;;;;16.78;64.26;100310.06;5075609;28;20052;-63
2022/06/29 01:54:13;;;;;;;2.58;1.70;;;;;;;16.79;64.20;100300.44;5075431;28;20052;-64
2022/06/29 01:56:42;;;;;;;2.60;1.60;;;;;;;16.83;64.07;100307.81;5069918;28;20044;-63
2022/06/29 01:59:09;;;;;;;1.83;1.37;;;;;;;16.87;63.52;100301.47;5073457;28;20048;-63
2022/06/29 02:01:36;;;;;;;2.53;1.65;;;;;;;16.90;63.37;100303.56;5075107;28;20044;-63
2022/06/29 02:04:04;;;;;;;2.42;1.60;;;;;;;16.92;63.61;100299.19;5074979;28;20048;-64
2022/06/29 02:06:31;;;;;;;2.03;1.60;;;;;;;16.93;63.40;100295.22;5050763;28;20053;-63
2022/06/29 02:08:59;;;;;;;2.72;1.63;;;;;;;16.85;63.61;100296.19;5050790;28;20049;-65
2022/06/29 02:11:26;;;;;;;3.55;2.03;;;;;;;16.88;63.29;100291.84;5054854;28;20064;-63
2022/06/29 02:13:55;;;;;;;2.85;1.70;;;;;;;16.86;63.54;100288.56;5054916;28;20049;-63
2022/06/29 02:16:23;;;;;;;3.42;1.77;;;;;;;16.87;63.45;100285.41;5053599;28;20067;-63
2022/06/29 02:18:50;;;;;;;3.72;1.73;;;;;;;16.82;64.03;100282.88;5053027;28;20417;-63
2022/06/29 02:21:17;;;;;;;2.60;1.80;;;;;;;16.85;63.67;100282.13;5054715;28;20253;-63
2022/06/29 02:23:45;;;;;;;3.15;1.80;;;;;;;16.87;63.68;100276.97;5054711;28;20057;-63
2022/06/29 02:26:12;;;;;;;2.35;1.60;;;;;;;16.87;63.44;100278.97;5051317;28;20490;-64
2022/06/29 02:28:39;;;;;;;2.53;1.85;;;;;;;16.86;63.63;100283.75;5054269;28;20059;-63
2022/06/29 02:36:37;;;;;;;3.35;1.90;;;;;;;16.75;64.11;100272.19;5048750;28;20055;-63
2022/06/29 02:39:05;;;;;;;2.28;1.75;;;;;;;16.72;64.18;100277.75;5052623;28;20052;-63
2022/06/29 02:41:32;;;;;;;2.72;1.73;;;;;;;16.62;64.45;100271.47;5054461;28;20060;-63
2022/06/29 02:44:00;;;;;;;2.67;1.60;;;;;;;16.58;64.64;100270.53;5054324;28;20394;-64
2022/06/29 02:46:31;;;;;;;3.88;1.65;;;;;;;16.53;64.77;100265.19;5051472;28;20053;-64
2022/06/29 02:48:58;;;;;;;4.75;2.03;;;;;;;16.45;65.00;100266.16;5053267;28;20064;-60
2022/06/29 02:51:26;;;;;;;4.35;2.00;;;;;;;16.42;65.15;100267.72;5054781;28;20142;-63
2022/06/29 02:53:53;;;;;;;3.53;1.83;;;;;;;16.38;65.52;100268.78;5053769;28;20060;-64
2022/06/29 02:56:21;;;;;;;5.78;2.10;;;;;;;16.34;65.30;100265.06;5051102;28;20053;-64
2022/06/29 02:58:48;;;;;;;3.40;1.95;;;;;;;16.33;65.48;100267.03;5053844;28;20045;-64
2022/06/29 03:01:15;;;;;;;2.58;1.80;;;;;;;16.27;65.37;100257.22;5054174;28;20061;-64
2022/06/29 03:03:45;;;;;;;7.00;1.88;;;;;;;16.24;65.24;100264.38;5053876;28;20049;-64
2022/06/29 03:06:12;;;;;;;6.07;2.08;;;;;;;16.18;65.47;100254.56;5067547;28;20600;-63
2022/06/29 03:08:39;;;;;;;4.85;2.03;;;;;;;16.12;65.56;100258.81;5055836;28;20119;-63
2022/06/29 03:11:07;;;;;;;2.40;1.77;;;;;;;16.08;65.93;100260.69;5054020;28;20053;-64
2022/06/29 03:13:34;;;;;;;3.47;1.83;;;;;;;16.07;65.81;100264.69;5053821;28;20409;-63
2022/06/29 03:16:01;;;;;;;2.10;1.58;;;;;;;16.04;65.98;100259.78;5053764;28;20053;-63
2022/06/29 03:18:29;;;;;;;2.78;1.77;;;;;;;16.06;65.84;100256.63;5068601;28;20492;-63
2022/06/29 03:20:57;;;;;;;2.00;1.70;;;;;;;16.07;66.35;100249.84;5074198;28;20056;-63
2022/06/29 03:23:25;;;;;;;4.10;1.80;;;;;;;16.11;66.04;100256.38;5073909;28;20063;-63
2022/06/29 03:25:52;;;;;;;2.90;1.85;;;;;;;16.12;66.02;100256.00;5073824;28;20404;-63
2022/06/29 03:28:19;;;;;;;4.07;2.78;;;;;;;16.12;66.12;100256.00;5070596;28;20056;-63
2022/06/29 03:30:47;;;;;;;3.88;2.67;;;;;;;16.11;66.17;100243.16;5071819;28;20056;-63
2022/06/29 03:33:14;;;;;;;3.85;2.20;;;;;;;16.14;65.93;100252.84;5070948;28;20048;-62
2022/06/29 03:35:41;;;;;;;3.90;2.50;;;;;;;16.20;66.04;100249.41;5074002;28;20079;-63
2022/06/29 03:38:10;;;;;;;2.58;2.03;;;;;;;16.21;66.18;100242.63;5073773;28;20044;-63
2022/06/29 03:40:37;;;;;;;3.55;2.15;;;;;;;16.23;65.96;100245.06;5073512;28;20057;-63
2022/06/29 03:43:04;;;;;;;3.03;1.80;;;;;;;16.22;66.09;100232.19;5067273;28;20048;-63
2022/06/29 03:45:32;;;;;;;2.72;1.95;;;;;;;16.28;65.93;100238.41;5073577;28;20052;-64
2022/06/29 03:47:59;;;;;;;5.20;2.10;;;;;;;16.31;66.27;100232.03;5073212;28;20382;-64
2022/06/29 03:50:26;;;;;;;2.78;1.58;;;;;;;16.33;66.16;100226.88;5072333;28;20053;-64
2022/06/29 03:52:54;;;;;;;2.95;1.80;;;;;;;16.43;65.93;100229.97;5070066;28;20127;-65
2022/06/29 03:55:23;;;;;;;3.40;2.10;;;;;;;16.43;65.57;100234.78;5073285;28;20049;-65
2022/06/29 03:57:50;;;;;;;3.67;2.20;;;;;;;16.45;65.83;100246.50;5073092;28;20064;-64
2022/06/29 04:00:18;;;;;;;3.28;1.90;;;;;;;16.50;65.60;100232.16;5072776;28;20053;-65
2022/06/29 04:02:46;;;;;;;3.85;1.80;;;;;;;16.53;65.49;100231.44;5069684;28;20482;-65
2022/06/29 04:05:13;;;;;;;4.05;1.98;;;;;;;16.60;65.32;100222.38;5072910;28;20063;-65
2022/06/29 04:07:41;;;;;;;2.65;1.92;;;;;;;16.60;65.39;100231.63;5073095;28;20412;-64
2022/06/29 04:10:09;;;;;;;2.92;1.85;;;;;;;16.68;65.19;100235.47;5067120;28;20048;-64
2022/06/29 04:12:39;;;;;;;5.00;2.53;;;;;;;16.73;65.30;100225.94;5072832;28;20059;-64
2022/06/29 04:15:07;;;;;;;3.45;2.40;;;;;;;16.77;65.34;100210.78;5072929;28;20433;-65
2022/06/29 04:17:35;;;;;;;6.10;4.20;;;;;;;16.76;65.41;100220.41;5072294;28;20048;-64
2022/06/29 04:20:03;;;;;;;3.65;2.17;;;;;;;16.88;65.22;100215.88;5061629;28;20051;-64
2022/06/29 04:22:31;;;;;;;2.55;1.73;;;;;;;17.00;64.74;100218.59;5072788;28;20055;-64
2022/06/29 04:24:58;;;;;;;3.25;2.00;;;;;;;16.91;65.19;100218.78;5072723;28;20052;-64
2022/06/29 04:27:25;;;;;;;4.22;2.20;;;;;;;17.07;64.66;100215.16;5072424;28;20052;-64
2022/06/29 04:29:54;;;;;;;2.67;1.77;;;;;;;17.17;64.83;100214.59;5068913;28;20059;-64
2022/06/29 04:32:21;;;;;;;4.57;1.93;;;;;;;17.25;64.44;100200.31;5072471;28;20053;-64
2022/06/29 04:34:49;;;;;;;3.70;2.03;;;;;;;17.30;63.97;100204.84;5072693;28;20421;-64
2022/06/29 04:37:16;;;;;;;3.67;2.13;;;;;;;17.36;63.31;100211.81;5072565;28;20060;-64
2022/06/29 04:39:43;;;;;;;4.32;2.53;;;;;;;17.34;62.51;100199.31;5070922;28;20053;-64
2022/06/29 04:42:11;;;;;;;2.78;1.90;;;;;;;17.39;62.54;100199.84;5065357;28;20060;-64
2022/06/29 04:44:38;;;;;;;3.25;2.13;;;;;;;17.54;61.88;100205.78;5052698;28;20049;-64
2022/06/29 04:47:07;;;;;;;4.00;2.05;;;;;;;17.66;61.61;100205.66;5060341;28;20056;-63
2022/06/29 04:49:34;;;;;;;2.90;2.00;;;;;;;17.77;60.80;100206.69;5085705;28;20053;-64
2022/06/29 04:52:01;;;;;;;5.28;2.20;;;;;;;17.79;61.73;100198.69;5063168;28;20496;-64
2022/06/29 04:54:29;;;;;;;2.55;2.13;;;;;;;17.87;60.87;100196.88;5069923;28;20472;-64
2022/06/29 04:56:56;;;;;;;3.13;2.10;;;;;;;17.93;60.67;100186.09;5059309;28;20064;-64
2022/06/29 04:59:23;;;;;;;5.35;2.00;;;;;;;18.03;60.81;100188.34;5075465;28;20059;-64
2022/06/29 05:01:50;;;;;;;2.97;2.10;;;;;;;18.14;60.59;100194.19;5071202;28;20511;-64
2022/06/29 05:04:19;;;;;;;3.45;2.35;;;;;;;18.17;59.88;100188.63;5068552;28;20404;-64
2022/06/29 05:06:47;;;;;;;5.77;2.53;;;;;;;18.23;59.74;100194.78;5065979;28;20512;-64
2022/06/29 05:09:14;;;;;;;4.63;2.33;;;;;;;18.31;60.67;100184.44;5047710;28;20471;-64
2022/06/29 05:11:41;;;;;;;3.50;2.28;;;;;;;18.40;61.13;100185.81;5056839;28;20060;-64
2022/06/29 05:14:10;;;;;;;4.57;2.60;;;;;;;18.49;61.17;100185.56;5048907;28;20049;-64
2022/06/29 05:16:37;;;;;;;4.28;3.00;;;;;;;18.60;61.16;100188.59;5054893;28;20063;-64
2022/06/29 05:19:05;;;;;;;6.57;2.90;;;;;;;18.64;60.98;100195.91;5053339;28;20053;-64
2022/06/29 05:21:34;;;;;;;5.72;3.22;;;;;;;18.75;61.25;100187.66;5045076;28;20061;-64
2022/06/29 05:24:01;;;;;;;4.65;3.00;;;;;;;18.85;61.32;100177.75;5050714;28;20048;-64
2022/06/29 05:26:28;;;;;;;5.20;3.00;;;;;;;19.04;60.64;100174.03;5065736;28;20052;-64
2022/06/29 05:28:55;;;;;;;5.25;3.08;;;;;;;19.26;60.45;100163.88;5048630;28;20053;-64
2022/06/29 05:31:23;;;;;;;6.65;3.80;;;;;;;19.42;60.35;100170.19;5039399;28;20064;-50
2022/06/29 05:33:50;;;;;;;4.55;3.20;;;;;;;19.42;60.89;100167.34;5045325;28;20048;-53
2022/06/29 05:36:17;;;;;;;3.92;3.05;;;;;;;19.80;60.99;100171.09;5055015;28;20056;-49
2022/06/29 05:38:46;;;;;;;3.83;2.90;;;;;;;19.89;59.97;100179.28;5046416;28;20053;-50
2022/06/29 05:41:15;;;;;;;4.95;3.58;;;;;;;20.15;59.03;100169.06;5053273;28;20417;-52
2022/06/29 05:43:43;;;;;;;5.68;2.83;;;;;;;20.40;58.13;100172.16;5032175;28;20053;-49
2022/06/29 05:46:11;;;;;;;6.20;3.47;;;;;;;20.64;57.92;100167.97;5042056;28;20056;-49
2022/06/29 05:48:38;;;;;;;6.18;3.33;;;;;;;20.77;57.28;100171.34;5066475;28;20872;-49
2022/06/29 05:51:06;;;;;;;5.18;2.92;;;;;;;20.97;56.80;100164.19;5046518;28;20045;-50
2022/06/29 05:53:33;;;;;;;5.13;3.08;;;;;;;21.18;55.95;100174.06;5070659;28;20056;-49
2022/06/29 05:56:02;;;;;;;5.68;2.97;;;;;;;21.40;55.87;100164.50;5046789;28;20056;-51
2022/06/29 05:58:29;;;;;;;5.28;3.10;;;;;;;21.58;54.94;100169.47;5048333;28;20057;-52
2022/06/29 06:00:56;;;;;;;4.45;2.85;;;;;;;21.72;54.81;100163.88;5051567;28;20061;-50
2022/06/29 06:03:24;;;;;;;4.72;3.08;;;;;;;21.85;54.35;100162.28;5045146;28;20044;-50
2022/06/29 06:05:51;;;;;;;3.90;2.58;;;;;;;22.07;53.60;100162.38;5059009;28;20048;-50
2022/06/29 06:08:18;;;;;;;4.78;3.00;;;;;;;22.16;53.14;100162.81;5071618;28;20481;-51
2022/06/29 06:10:46;;;;;;;4.70;2.70;;;;;;;22.25;52.99;100163.25;5076089;28;20059;-50
2022/06/29 06:13:14;;;;;;;5.68;2.80;;;;;;;22.26;52.52;100159.22;5087269;28;20071;-49
2022/06/29 06:15:42;;;;;;;5.60;3.30;;;;;;;22.42;52.14;100167.34;5078206;28;20044;-50
2022/06/29 06:18:09;;;;;;;4.50;2.90;;;;;;;22.50;52.39;100171.00;5066017;28;20052;-52
2022/06/29 06:20:37;;;;;;;3.10;2.80;;;;;;;22.09;53.94;100172.13;5077708;28;20080;-48
2022/06/29 06:23:04;;;;;;;5.53;2.78;;;;;;;22.20;53.62;100172.13;5084681;28;22259;-48
2022/06/29 06:25:32;;;;;;;4.20;2.90;;;;;;;22.14;53.42;100164.44;5054863;28;20052;-49
2022/06/29 06:28:00;;;;;;;4.97;3.17;;;;;;;21.97;53.32;100166.81;5074851;28;20052;-50
2022/06/29 06:30:28;;;;;;;5.35;2.72;;;;;;;22.05;53.38;100161.97;5080624;28;20055;-50
2022/06/29 06:32:57;;;;;;;5.95;2.90;;;;;;;21.95;54.17;100160.72;5082815;28;20492;-52
2022/06/29 06:35:25;;;;;;;7.15;2.95;;;;;;;21.74;54.82;100167.13;5073815;28;20645;-50
2022/06/29 06:37:52;;;;;;;4.82;3.10;;;;;;;21.77;55.21;100162.66;5068355;28;20051;-50
2022/06/29 06:43:04;;;;;;;7.13;2.97;;;;;;;22.09;54.11;100162.81;5085970;28;20059;-50
2022/06/29 06:45:33;;;;;;;4.03;2.38;;;;;;;22.16;54.10;100159.16;5088774;28;20052;-50
2022/06/29 06:48:00;;;;;;;4.55;2.53;;;;;;;22.31;53.89;100163.69;5065855;28;20511;-50
2022/06/29 06:50:27;;;;;;;4.75;2.58;;;;;;;22.25;53.21;100157.56;5079706;28;20056;-50
2022/06/29 06:52:55;;;;;;;3.22;2.20;;;;;;;22.24;53.18;100158.00;5087763;28;20062;-48
2022/06/29 06:55:22;;;;;;;5.18;2.60;;;;;;;22.31;52.97;100148.69;5069417;28;21145;-50
2022/06/29 06:57:50;;;;;;;5.60;2.80;;;;;;;22.34;52.84;100153.53;5068907;28;20052;-50
2022/06/29 07:00:17;;;;;;;3.45;1.98;;;;;;;22.39;52.87;100153.16;5069784;28;20049;-51
2022/06/29 07:02:46;;;;;;;4.03;2.33;;;;;;;22.54;52.08;100163.31;5091095;28;20052;-49
2022/06/29 07:05:13;;;;;;;4.57;2.08;;;;;;;22.65;51.74;100147.09;5072177;28;20049;-50
2022/06/29 07:07:41;;;;;;;6.05;2.25;;;;;;;22.73;51.70;100147.09;5060352;28;20052;-51
2022/06/29 07:10:09;;;;;;;4.93;2.75;;;;;;;22.81;51.24;100148.72;5072093;28;20052;-48
2022/06/29 07:12:36;;;;;;;4.63;2.50;;;;;;;22.85;51.12;100149.53;5072816;28;20402;-50
2022/06/29 07:15:05;;;;;;;6.25;2.40;;;;;;;22.77;51.53;100139.41;5076061;28;20055;-50
2022/06/29 07:17:32;;;;;;;8.63;2.60;;;;;;;22.73;52.26;100152.78;5081383;28;20447;-50
2022/06/29 07:20:01;;;;;;;5.32;2.42;;;;;;;22.21;54.25;100148.22;5066231;28;20053;-51
2022/06/29 07:22:28;;;;;;;4.40;2.83;;;;;;;22.51;53.32;100152.78;5079970;28;20537;-49
2022/06/29 07:24:55;;;;;;;3.60;2.25;;;;;;;22.70;52.74;100154.41;5081168;28;20049;-49
2022/06/29 07:27:23;;;;;;;4.45;2.28;;;;;;;22.85;52.23;100150.34;5087013;28;20048;-46
2022/06/29 07:29:52;;;;;;;4.15;2.05;;;;;;;23.00;51.76;100145.47;5068407;28;20052;-48
2022/06/29 07:32:19;;;;;;;4.13;2.28;;;;;;;23.16;51.54;100147.06;5073789;28;20060;-47
2022/06/29 07:34:47;;;;;;;3.60;2.45;;;;;;;23.16;51.35;100152.75;5077968;28;20040;-48
2022/06/29 07:37:15;;;;;;;5.38;2.30;;;;;;;23.38;51.13;100153.53;5093381;28;20059;-48
2022/06/29 07:39:43;;;;;;;3.63;2.50;;;;;;;23.51;50.65;100146.97;5063555;28;20520;-48
2022/06/29 07:42:10;;;;;;;4.13;2.30;;;;;;;23.67;50.39;100145.72;5064208;28;20052;-47
2022/06/29 07:44:38;;;;;;;6.78;2.72;;;;;;;23.82;50.02;100138.78;5083205;28;20057;-50
2022/06/29 07:47:05;;;;;;;5.82;2.65;;;;;;;23.94;49.64;100148.91;5069932;28;20049;-49
2022/06/29 07:49:33;;;;;;;5.22;2.72;;;;;;;24.03;50.25;100139.91;5072166;28;20044;-50
2022/06/29 07:52:00;;;;;;;4.30;2.55;;;;;;;23.91;50.86;100147.66;5082768;28;20063;-49
2022/06/29 07:54:29;;;;;;;4.22;2.53;;;;;;;24.08;49.76;100143.09;5071092;28;20056;-50
2022/06/29 07:56:56;;;;;;;5.78;2.30;;;;;;;24.27;49.23;100147.50;5088981;28;20413;-52
2022/06/29 07:59:24;;;;;;;5.00;2.30;;;;;;;24.27;49.25;100141.78;5076208;28;20051;-50
2022/06/29 08:01:51;;;;;;;4.65;1.95;;;;;;;24.41;49.29;100142.91;5080784;28;20071;-51
2022/06/29 08:04:18;;;;;;;4.22;2.00;;;;;;;24.50;48.66;100148.97;5086672;28;20067;-50
2022/06/29 08:06:46;;;;;;;6.00;2.15;;;;;;;24.56;48.73;100140.81;5074845;28;20493;-50
2022/06/29 08:09:13;;;;;;;5.43;2.05;;;;;;;24.51;48.94;100140.03;5065349;28;20052;-50
2022/06/29 08:11:42;;;;;;;5.00;2.40;;;;;;;24.54;48.95;100144.06;5082864;28;20052;-50
2022/06/29 08:14:09;;;;;;;3.58;1.90;;;;;;;24.34;49.65;100145.78;5090802;28;20055;-53
2022/06/29 08:16:36;;;;;;;4.70;2.78;;;;;;;24.41;48.44;100142.91;5077094;28;20052;-50
2022/06/29 08:19:04;;;;;;;3.78;1.92;;;;;;;24.29;48.06;100142.16;5063874;28;20059;-52
2022/06/29 08:21:32;;;;;;;5.50;2.58;;;;;;;24.33;48.10;100152.72;5077811;28;20056;-64
2022/06/29 08:23:59;;;;;;;8.15;3.38;;;;;;;24.40;49.41;100149.81;5091699;28;20118;-64
2022/06/29 08:26:26;;;;;;;3.78;2.28;;;;;;;24.38;50.05;100146.59;5079944;28;20432;-64
2022/06/29 08:28:55;;;;;;;3.20;2.20;;;;;;;24.38;50.75;100146.59;5079932;28;20063;-61
2022/06/29 08:31:23;;;;;;;5.18;1.98;;;;;;;24.39;50.50;100142.53;5069744;28;20055;-64
2022/06/29 08:33:50;;;;;;;4.90;2.10;;;;;;;24.46;50.02;100142.47;5090724;28;20052;-64
2022/06/29 08:36:17;;;;;;;4.88;2.15;;;;;;;24.37;49.29;100139.28;5086392;28;20068;-64
2022/06/29 08:38:45;;;;;;;3.30;1.90;;;;;;;24.41;49.58;100137.22;5074581;28;20048;-63
2022/06/29 08:41:14;;;;;;;3.65;2.15;;;;;;;24.40;49.88;100144.13;5069697;28;20115;-64
2022/06/29 08:43:42;;;;;;;3.92;2.13;;;;;;;24.41;49.33;100145.75;5088814;28;20493;-64
2022/06/29 08:46:13;;;;;;;2.78;2.10;;;;;;;24.44;49.65;100145.75;5088166;28;20044;-64
2022/06/29 08:48:41;;;;;;;3.28;2.10;;;;;;;24.45;48.95;100143.69;5083483;28;20056;-63
2022/06/29 08:51:11;;;;;;;4.05;2.08;;;;;;;24.38;49.05;100152.28;5078821;28;20048;-63
2022/06/29 08:53:41;;;;;;;3.75;2.25;;;;;;;24.36;48.79;100154.72;5071173;28;20044;-64
2022/06/29 08:56:09;;;;;;;4.15;1.85;;;;;;;24.29;48.98;100145.00;5070829;28;20071;-63
2022/06/29 08:58:41;;;;;;;3.25;2.15;;;;;;;24.28;49.09;100146.25;5074306;28;20484;-64
2022/06/29 09:01:09;;;;;;;3.30;2.05;;;;;;;24.21;48.85;100151.16;5078315;28;20052;-62
2022/06/29 09:03:38;;;;;;;4.05;2.20;;;;;;;24.16;49.14;100158.13;5071664;28;20070;-64
2022/06/29 09:06:06;;;;;;;4.28;2.28;;;;;;;24.15;49.71;100152.81;5092259;28;20048;-64
2022/06/29 09:08:34;;;;;;;4.35;2.13;;;;;;;24.13;49.75;100156.09;5072793;28;20075;-63
2022/06/29 09:11:23;;;;;;;4.15;2.08;;;;;;;24.19;50.03;100150.78;5065406;28;20044;-62
2022/06/29 09:14:08;;;;;;;;;;;;;;;24.10;50.08;100156.91;5075525;28;20048;-62
2022/06/29 09:16:52;;;;;;;3.90;2.10;;;;;;;24.16;50.01;100155.25;5092079;28;19927;-62
2022/06/29 09:19:22;;;;;;;3.83;2.10;;;;;;;24.19;50.42;100160.16;5083225;28;20059;-62
2022/06/29 09:21:50;;;;;;;4.22;2.28;;;;;;;24.28;50.44;100159.69;5074076;28;20052;-64
2022/06/29 09:24:19;;;;;;;4.80;2.30;;;;;;;24.38;50.41;100157.97;5075975;28;20052;-64
2022/06/29 09:26:50;;;;;;;3.20;2.13;;;;;;;24.41;50.05;100157.97;5089985;28;20477;-64
2022/06/29 09:29:22;;;;;;;3.03;2.20;;;;;;;24.48;49.57;100157.09;5082195;28;20515;-64
2022/06/29 09:32:10;;;;;;;3.80;2.22;;;;;;;24.49;49.65;100165.25;5073517;28;20049;-63
2022/06/29 09:34:40;;;;;;;3.97;2.00;;;;;;;24.59;49.54;100169.25;5067134;28;20053;-63
2022/06/29 09:37:10;;;;;;;4.43;2.20;;;;;;;24.75;49.70;100165.88;5083440;28;20048;-64
2022/06/29 09:39:38;;;;;;;;;;;;;;;24.87;49.33;100167.41;5076454;28;20059;-63
2022/06/29 09:42:11;;;;;;;5.30;2.70;;;;;;;24.90;48.93;100166.56;5066640;28;19920;-63
2022/06/29 09:44:42;;;;;;;5.07;2.67;;;;;;;25.01;48.78;100163.59;5071792;28;20131;-63
2022/06/29 09:47:12;;;;;;;3.33;2.50;;;;;;;25.17;48.48;100168.75;5071479;28;20485;-64
2022/06/29 09:49:42;;;;;;;5.30;2.45;;;;;;;25.27;48.12;100167.88;5091220;28;20055;-64
2022/06/29 09:52:10;;;;;;;4.47;2.20;;;;;;;25.37;47.65;100163.31;5083756;28;20429;-63
2022/06/29 09:54:44;;;;;;;7.88;2.92;;;;;;;25.48;47.13;100166.84;5070067;28;20117;-63
2022/06/29 09:57:15;;;;;;;3.90;2.30;;;;;;;25.62;47.16;100166.69;5087393;28;20044;-64
2022/06/29 10:02:39;;;;;;;5.45;2.30;;;;;;;25.89;46.50;100166.78;5085031;28;20083;-64
2022/06/29 10:05:11;;;;;;;4.65;2.75;;;;;;;26.03;45.99;100164.97;5069903;28;20448;-64
2022/06/29 10:07:41;;;;;;;6.00;2.70;;;;;;;26.08;45.70;100164.47;5082176;28;20059;-64
2022/06/29 10:10:11;;;;;;;5.43;2.65;;;;;;;26.14;45.72;100162.78;5080916;28;20052;-64
2022/06/29 10:16:10;;;;;;;3.55;2.45;;;;;;;26.38;44.91;100155.09;5069365;28;20075;-64
2022/06/29 10:18:56;;;;;;;3.97;2.30;;;;;;;26.48;45.07;100156.16;5080598;28;20052;-64
2022/06/29 10:21:27;;;;;;;4.07;2.47;;;;;;;26.72;43.89;100152.13;5068434;28;20054;-64
2022/06/29 10:23:57;;;;;;;4.38;2.47;;;;;;;26.91;43.84;100152.63;5078105;28;20052;-64
2022/06/29 10:26:48;;;;;;;5.28;2.20;;;;;;;27.09;43.40;100158.84;5083639;28;20052;-64
2022/06/29 10:29:40;;;;;;;4.63;2.20;;;;;;;27.45;42.02;100143.91;5050943;28;20048;-63
2022/06/29 10:32:17;;;;;;;4.20;2.60;;;;;;;27.79;42.16;100145.66;5086179;28;20063;-63
2022/06/29 10:37:33;;;;;;;4.13;2.60;;;;;;;28.13;40.44;100145.34;5054986;28;20052;-64
2022/06/29 10:40:04;;;;;;;4.90;2.70;;;;;;;28.29;39.85;100136.00;5054640;28;20056;-63
2022/06/29 10:45:33;;;;;;;6.90;2.90;;;;;;;27.91;40.70;100145.03;5072687;28;20055;-64
2022/06/29 10:48:24;;;;;;;5.85;3.17;;;;;;;28.08;40.44;100139.38;5094223;28;20055;-63
2022/06/29 10:50:52;;;;;;;4.28;2.90;;;;;;;28.20;40.51;100135.81;5072698;28;20059;-63
2022/06/29 10:53:22;;;;;;;3.88;3.05;;;;;;;28.33;39.92;100136.72;5082319;28;20059;-64
2022/06/29 10:55:52;;;;;;;5.63;2.67;;;;;;;28.45;40.49;100137.25;5081166;28;20519;-63
2022/06/29 10:58:21;;;;;;;4.22;2.83;;;;;;;28.52;40.05;100137.94;5083886;28;20059;-63
2022/06/29 11:00:53;;;;;;;4.65;2.88;;;;;;;28.60;39.58;100126.28;5071233;28;20052;-63
2022/06/29 11:03:23;;;;;;;6.47;2.88;;;;;;;28.70;39.64;100126.03;5081361;28;20051;-64
2022/06/29 11:17:01;;;;;;;7.22;3.40;;;;;;;29.65;36.73;100117.34;5080083;28;20068;-64
2022/06/29 11:19:32;;;;;;;6.57;2.60;;;;;;;29.75;36.96;100121.97;5083713;28;20424;-63
2022/06/29 11:22:10;;;;;;;5.18;3.30;;;;;;;29.89;35.63;100117.88;5082461;28;20423;-63
2022/06/29 11:24:52;;;;;;;4.43;3.10;;;;;;;30.11;35.07;100117.19;5080950;28;20056;-64
2022/06/29 11:27:36;;;;;;;4.72;3.25;;;;;;;30.13;34.64;100114.69;5074648;28;20055;-63
2022/06/29 11:30:07;;;;;;;5.55;3.63;;;;;;;29.97;34.57;100114.81;5061487;28;20481;-62
2022/06/29 11:32:42;;;;;;;4.28;3.38;;;;;;;30.02;35.60;100115.00;5067726;28;20056;-62
2022/06/29 11:35:11;;;;;;;4.13;3.72;;;;;;;29.75;35.05;100115.44;5081547;28;20048;-62
2022/06/29 11:37:38;;;;;;;;;;;;;;;29.35;34.98;100112.88;5073486;28;20410;-62
2022/06/29 11:40:08;;;;;;;4.05;3.65;;;;;;;29.16;35.64;100116.69;5066597;28;20297;-61
2022/06/29 11:45:20;;;;;;;3.92;3.63;;;;;;;28.25;36.81;100108.69;5090785;28;20067;-62
2022/06/29 11:47:52;;;;;;;4.97;3.70;;;;;;;27.90;37.52;100100.47;5086643;28;20056;-62
2022/06/29 11:50:20;;;;;;;4.80;3.72;;;;;;;27.75;37.61;100102.00;5078563;28;20056;-62
2022/06/29 11:52:49;;;;;;;4.95;4.18;;;;;;;27.62;37.80;100086.78;5068569;28;20059;-62
2022/06/29 11:55:42;;;;;;;5.03;3.60;;;;;;;27.52;38.78;100085.75;5069401;28;20063;-61
2022/06/29 11:58:10;;;;;;;4.50;3.83;;;;;;;27.42;38.94;100096.16;5080152;28;20484;-62
2022/06/29 12:00:39;;;;;;;4.90;4.32;;;;;;;27.45;39.89;100080.19;5089065;28;20425;-61
2022/06/29 12:03:08;;;;;;;4.55;3.92;;;;;;;27.40;39.45;100081.47;5082626;28;20040;-62
2022/06/29 12:05:36;;;;;;;;;;;;;;;27.35;39.61;100079.13;5087113;28;20052;-61
2022/06/29 12:08:03;;;;;;;4.82;4.05;;;;;;;27.32;40.50;100080.84;5064782;28;20273;-62